createdAt,value
2022-11-09T00:01:07.577Z,98547.84
2022-11-09T00:03:36.397Z,98547.50
2022-11-09T00:06:05.141Z,98554.81
2022-11-09T00:08:37.637Z,98557.47
2022-11-09T00:11:08.515Z,98555.84
2022-11-09T00:13:38.964Z,98559.34
2022-11-09T00:16:09.270Z,98564.56
2022-11-09T00:18:39.635Z,98565.13
2022-11-09T00:21:17.290Z,98570.47
2022-11-09T00:23:47.919Z,98566.78
2022-11-09T00:26:19.641Z,98572.59
2022-11-09T00:28:48.795Z,98569.69
2022-11-09T00:31:20.813Z,98571.78
2022-11-09T00:33:50.872Z,98572.28
2022-11-09T00:36:21.248Z,98572.28
2022-11-09T00:38:54.817Z,98569.59
2022-11-09T00:41:24.428Z,98567.38
2022-11-09T00:43:54.096Z,98574.59
2022-11-09T00:46:23.677Z,98565.19
2022-11-09T00:48:53.287Z,98570.44
2022-11-09T00:51:22.084Z,98573.22
2022-11-09T00:53:54.893Z,98572.84
2022-11-09T00:56:24.766Z,98580.63
2022-11-09T00:58:56.766Z,98568.44
2022-11-09T01:01:25.842Z,98577.84
2022-11-09T01:03:55.011Z,98575.78
2022-11-09T01:06:27.207Z,98568.31
2022-11-09T01:08:57.452Z,98574.97
2022-11-09T01:11:26.456Z,98576.91
2022-11-09T01:13:56.106Z,98567.88
2022-11-09T01:16:25.833Z,98569.94
2022-11-09T01:18:56.199Z,98569.94
2022-11-09T01:21:27.858Z,98571.34
2022-11-09T01:23:59.173Z,98571.44
2022-11-09T01:26:30.544Z,98573.28
2022-11-09T01:28:59.370Z,98570.63
2022-11-09T01:31:28.500Z,98574.44
2022-11-09T01:33:57.443Z,98570.47
2022-11-09T01:36:27.870Z,98569.22
2022-11-09T01:38:58.148Z,98563.53
2022-11-09T01:41:29.809Z,98565.13
2022-11-09T01:44:13.524Z,98572.47
2022-11-09T01:46:53.832Z,98563.16
2022-11-09T01:49:37.920Z,98564.19
2022-11-09T01:52:13.532Z,98564.19
2022-11-09T01:54:49.985Z,98568.28
2022-11-09T01:57:31.671Z,98563.50
2022-11-09T02:00:07.591Z,98562.44
2022-11-09T02:02:48.410Z,98558.75
2022-11-09T02:05:25.220Z,98569.44
2022-11-09T02:07:57.851Z,98556.88
2022-11-09T02:11:02.067Z,98557.19
2022-11-09T02:13:34.676Z,98568.28
2022-11-09T02:16:11.748Z,98557.91
2022-11-09T02:18:50.094Z,98551.53
2022-11-09T02:21:21.081Z,98548.63
2022-11-09T02:23:50.822Z,98545.94
2022-11-09T02:26:28.861Z,98542.22
2022-11-09T02:29:02.668Z,98537.91
2022-11-09T02:31:37.641Z,98537.13
2022-11-09T02:34:10.811Z,98533.94
2022-11-09T02:36:43.633Z,98535.81
2022-11-09T02:39:23.200Z,98535.00
2022-11-09T02:42:02.757Z,98532.34
2022-11-09T02:44:42.100Z,98541.41
2022-11-09T02:47:10.955Z,98540.09
2022-11-09T02:49:39.727Z,98534.44
2022-11-09T02:52:11.709Z,98531.53
2022-11-09T02:54:40.503Z,98527.78
2022-11-09T02:57:09.540Z,98521.88
2022-11-09T02:59:39.453Z,98526.06
2022-11-09T03:02:09.016Z,98525.50
2022-11-09T03:04:37.801Z,98524.34
2022-11-09T03:07:09.036Z,98533.41
2022-11-09T03:09:40.700Z,98529.13
2022-11-09T03:12:23.420Z,98532.25
2022-11-09T03:14:53.440Z,98532.41
2022-11-09T03:17:22.333Z,98535.31
2022-11-09T03:19:51.100Z,98534.75
2022-11-09T03:22:21.014Z,98528.81
2022-11-09T03:24:52.106Z,98531.97
2022-11-09T03:27:20.987Z,98526.63
2022-11-09T03:29:51.322Z,98525.22
2022-11-09T03:32:20.059Z,98520.63
2022-11-09T03:34:49.338Z,98522.56
2022-11-09T03:37:18.118Z,98518.88
2022-11-09T03:39:47.484Z,98520.16
2022-11-09T03:42:18.470Z,98534.56
2022-11-09T03:44:47.192Z,98530.72
2022-11-09T03:47:15.932Z,98532.50
2022-11-09T03:49:44.644Z,98538.75
2022-11-09T03:52:13.391Z,98537.47
2022-11-09T03:54:42.098Z,98539.22
2022-11-09T03:57:10.778Z,98538.19
2022-11-09T04:00:19.983Z,98525.88
2022-11-09T04:02:50.644Z,98527.84
2022-11-09T04:05:20.290Z,98534.47
2022-11-09T04:07:52.313Z,98535.88
2022-11-09T04:10:22.816Z,98542.72
2022-11-09T04:14:22.665Z,98540.84
2022-11-09T04:17:22.659Z,98525.31
2022-11-09T04:19:51.436Z,98535.28
2022-11-09T04:22:20.251Z,98537.72
2022-11-09T04:24:48.957Z,98541.34
2022-11-09T04:27:19.798Z,98537.50
2022-11-09T04:29:48.856Z,98538.06
2022-11-09T04:32:45.174Z,98539.59
2022-11-09T04:35:13.906Z,98537.13
2022-11-09T04:37:42.668Z,98537.00
2022-11-09T04:40:15.111Z,98539.47
2022-11-09T04:42:43.833Z,98540.28
2022-11-09T04:45:12.913Z,98531.78
2022-11-09T04:47:41.824Z,98531.78
2022-11-09T04:55:02.052Z,98528.97
2022-11-09T05:02:08.863Z,98533.38
2022-11-09T05:04:37.751Z,98534.44
2022-11-09T05:07:07.030Z,98535.84
2022-11-09T05:09:39.614Z,98535.38
2022-11-09T05:16:48.981Z,98550.44
2022-11-09T05:20:33.739Z,98554.53
2022-11-09T05:23:20.726Z,98553.00
2022-11-09T05:25:50.529Z,98556.03
2022-11-09T05:28:20.330Z,98554.97
2022-11-09T05:30:49.585Z,98570.78
2022-11-09T05:34:38.160Z,98566.16
2022-11-09T05:37:08.480Z,98554.19
2022-11-09T05:39:42.115Z,98567.53
2022-11-09T05:42:12.990Z,98576.47
2022-11-09T05:44:44.036Z,98581.34
2022-11-09T05:47:12.769Z,98573.69
2022-11-09T05:49:41.539Z,98574.38
2022-11-09T05:52:11.659Z,98574.25
2022-11-09T05:54:40.411Z,98583.06
2022-11-09T05:57:09.444Z,98584.81
2022-11-09T05:59:38.333Z,98580.63
2022-11-09T06:02:07.114Z,98584.72
2022-11-09T06:04:35.945Z,98574.13
2022-11-09T06:07:04.730Z,98581.44
2022-11-09T06:09:56.301Z,98585.50
2022-11-09T06:13:15.809Z,98595.97
2022-11-09T06:15:44.475Z,98594.59
2022-11-09T06:18:13.258Z,98598.63
2022-11-09T06:20:41.969Z,98596.19
2022-11-09T06:23:12.175Z,98608.50
2022-11-09T06:25:42.508Z,98604.53
2022-11-09T06:28:11.260Z,98604.34
2022-11-09T06:30:40.739Z,98599.00
2022-11-09T06:33:09.664Z,98599.44
2022-11-09T06:35:38.689Z,98599.69
2022-11-09T06:38:07.412Z,98601.06
2022-11-09T06:40:37.231Z,98600.63
2022-11-09T06:43:07.929Z,98604.78
2022-11-09T06:45:37.083Z,98610.94
2022-11-09T06:48:06.436Z,98611.88
2022-11-09T06:50:35.795Z,98620.00
2022-11-09T06:53:07.605Z,98620.56
2022-11-09T06:55:38.067Z,98609.88
2022-11-09T06:58:11.221Z,98617.44
2022-11-09T07:00:40.150Z,98599.53
2022-11-09T07:03:08.854Z,98605.19
2022-11-09T07:05:40.321Z,98606.84
2022-11-09T07:08:09.235Z,98611.16
2022-11-09T07:10:38.572Z,98602.06
2022-11-09T07:13:09.692Z,98612.53
2022-11-09T07:15:39.925Z,98611.25
2022-11-09T07:18:12.922Z,98608.34
2022-11-09T07:20:41.689Z,98612.13
2022-11-09T07:23:10.552Z,98620.50
2022-11-09T07:25:39.403Z,98625.88
2022-11-09T07:28:12.697Z,98629.22
2022-11-09T07:30:41.696Z,98633.84
2022-11-09T07:33:18.252Z,98626.06
2022-11-09T07:35:48.036Z,98634.53
2022-11-09T07:38:17.188Z,98625.78
2022-11-09T07:40:45.924Z,98631.94
2022-11-09T07:43:17.505Z,98624.84
2022-11-09T07:45:51.343Z,98632.97
2022-11-09T07:48:20.050Z,98638.97
2022-11-09T07:50:48.798Z,98645.50
2022-11-09T07:53:18.291Z,98641.25
2022-11-09T07:55:47.177Z,98646.16
2022-11-09T07:58:17.648Z,98651.81
2022-11-09T08:00:46.522Z,98659.38
2022-11-09T08:03:15.231Z,98659.69
2022-11-09T08:05:43.896Z,98655.19
2022-11-09T08:08:15.724Z,98660.28
2022-11-09T08:10:50.563Z,98654.47
2022-11-09T08:13:22.026Z,98653.19
2022-11-09T08:15:51.082Z,98662.13
2022-11-09T08:18:22.850Z,98662.69
2022-11-09T08:20:51.812Z,98658.72
2022-11-09T08:23:22.544Z,98652.88
2022-11-09T08:25:52.524Z,98651.59
2022-11-09T08:28:23.477Z,98656.47
2022-11-09T08:30:58.656Z,98643.63
2022-11-09T08:33:29.073Z,98652.00
2022-11-09T08:35:58.394Z,98647.56
2022-11-09T08:38:27.147Z,98656.72
2022-11-09T08:40:59.508Z,98655.19
2022-11-09T08:43:29.786Z,98649.25
2022-11-09T08:45:58.618Z,98647.22
2022-11-09T08:48:27.664Z,98647.53
2022-11-09T08:50:59.160Z,98650.56
2022-11-09T08:53:30.673Z,98644.78
2022-11-09T08:55:59.609Z,98651.84
2022-11-09T08:58:29.786Z,98652.91
2022-11-09T09:00:58.661Z,98648.19
2022-11-09T09:03:27.409Z,98651.75
2022-11-09T09:05:56.575Z,98662.81
2022-11-09T09:08:26.040Z,98660.69
2022-11-09T09:10:54.764Z,98654.34
2022-11-09T09:13:23.722Z,98663.50
2022-11-09T09:15:53.883Z,98658.72
2022-11-09T09:18:23.109Z,98654.97
2022-11-09T09:20:52.194Z,98659.03
2022-11-09T09:23:20.943Z,98656.91
2022-11-09T09:25:49.611Z,98666.34
2022-11-09T09:28:18.520Z,98655.63
2022-11-09T09:30:47.472Z,98659.13
2022-11-09T09:33:17.621Z,98658.88
2022-11-09T09:35:46.315Z,98657.81
2022-11-09T09:38:15.061Z,98656.72
2022-11-09T09:40:58.460Z,98658.34
2022-11-09T09:43:41.393Z,98647.16
2022-11-09T09:46:21.296Z,98642.34
2022-11-09T09:48:58.491Z,98646.16
2022-11-09T09:51:40.280Z,98655.56
2022-11-09T09:54:18.764Z,98653.47
2022-11-09T09:56:51.163Z,98639.28
2022-11-09T09:59:33.243Z,98629.41
2022-11-09T10:02:02.087Z,98617.91
2022-11-09T10:04:38.741Z,98616.34
2022-11-09T10:07:19.117Z,98613.72
2022-11-09T10:10:07.340Z,98612.72
2022-11-09T10:12:59.191Z,98613.84
2022-11-09T10:15:36.687Z,98605.06
2022-11-09T10:18:37.099Z,98602.94
2022-11-09T10:21:24.513Z,98600.00
2022-11-09T10:24:16.092Z,98598.94
2022-11-09T10:26:50.709Z,98596.81
2022-11-09T10:29:26.267Z,98609.47
2022-11-09T10:31:58.796Z,98616.22
2022-11-09T10:34:34.322Z,98616.22
2022-11-09T10:37:14.852Z,98612.47
2022-11-09T10:39:53.681Z,98600.41
2022-11-09T11:47:12.389Z,98559.81
2022-11-09T11:50:46.800Z,98568.47
2022-11-09T11:54:08.944Z,98559.06
2022-11-09T12:00:27.150Z,98548.03
2022-11-09T12:03:41.616Z,98567.13
2022-11-09T12:16:19.028Z,98555.34
2022-11-09T12:19:45.373Z,98559.09
2022-11-09T12:22:48.020Z,98565.03
2022-11-09T12:28:59.444Z,98553.47
2022-11-09T12:32:04.811Z,98555.91
2022-11-09T12:35:17.682Z,98558.06
2022-11-09T12:38:14.790Z,98559.97
2022-11-09T12:41:08.941Z,98568.31
2022-11-09T12:44:05.347Z,98574.25
2022-11-09T12:47:04.220Z,98564.84
2022-11-09T12:49:55.018Z,98571.03
2022-11-09T12:52:45.012Z,98569.16
2022-11-09T12:55:45.136Z,98565.72
2022-11-09T12:58:35.987Z,98571.09
2022-11-09T13:01:52.366Z,98567.09
2022-11-09T13:04:39.598Z,98556.34
2022-11-09T13:07:54.258Z,98565.50
2022-11-09T13:10:41.973Z,98557.19
2022-11-09T13:13:29.204Z,98556.91
2022-11-09T13:16:37.818Z,98556.09
2022-11-09T13:19:55.218Z,98549.66
2022-11-09T13:23:06.924Z,98545.59
2022-11-09T13:25:55.989Z,98548.28
2022-11-09T13:29:23.681Z,98553.94
2022-11-09T13:32:35.350Z,98549.91
2022-11-09T13:36:15.371Z,98560.94
2022-11-09T13:39:33.213Z,98566.03
2022-11-09T13:42:30.709Z,98563.06
2022-11-09T13:48:46.208Z,98570.28
2022-11-09T13:51:51.333Z,98566.22
2022-11-09T13:54:45.482Z,98574.25
2022-11-09T13:57:34.622Z,98581.50
2022-11-09T14:00:26.969Z,98587.06
2022-11-09T14:03:25.141Z,98594.56
2022-11-09T14:06:15.262Z,98585.69
2022-11-09T14:09:04.960Z,98597.25
2022-11-09T14:12:33.776Z,98587.81
2022-11-09T14:15:46.528Z,98594.25
2022-11-09T14:18:51.188Z,98595.03
2022-11-09T14:21:47.322Z,98598.00
2022-11-09T14:24:39.594Z,98603.06
2022-11-09T14:27:27.510Z,98607.84
2022-11-09T14:30:23.722Z,98618.28
2022-11-09T14:33:27.192Z,98614.75
2022-11-09T14:36:15.628Z,98611.22
2022-11-09T14:39:13.721Z,98620.78
2022-11-09T14:42:02.427Z,98615.09
2022-11-09T14:44:50.873Z,98620.69
2022-11-09T14:47:40.047Z,98625.72
2022-11-09T14:50:31.900Z,98634.53
2022-11-09T14:53:26.447Z,98628.31
2022-11-09T14:56:19.383Z,98629.91
2022-11-09T14:59:08.529Z,98629.31
2022-11-09T15:02:07.676Z,98624.44
2022-11-09T15:04:57.273Z,98622.19
2022-11-09T15:07:51.490Z,98628.59
2022-11-09T15:10:40.325Z,98638.19
2022-11-09T15:13:36.546Z,98624.16
2022-11-09T15:16:30.632Z,98626.69
2022-11-09T15:19:30.524Z,98633.38
2022-11-09T15:22:48.610Z,98638.41
2022-11-09T15:25:55.659Z,98635.88
2022-11-09T15:28:51.557Z,98636.38
2022-11-09T15:31:39.261Z,98641.41
2022-11-09T15:34:33.359Z,98649.38
2022-11-09T15:38:27.945Z,98655.44
2022-11-09T15:41:19.493Z,98665.28
2022-11-09T15:44:09.655Z,98670.31
2022-11-09T15:47:00.137Z,98674.06
2022-11-09T15:49:47.956Z,98674.31
2022-11-09T15:52:40.845Z,98677.47
2022-11-09T15:55:33.349Z,98682.75
2022-11-09T15:58:22.073Z,98687.09
2022-11-09T16:01:14.578Z,98694.31
2022-11-09T16:04:03.253Z,98688.06
2022-11-09T16:06:52.046Z,98693.16
2022-11-09T16:09:42.025Z,98695.78
2022-11-09T16:12:35.616Z,98690.75
2022-11-09T16:15:24.899Z,98699.69
2022-11-09T16:18:16.810Z,98705.84
2022-11-09T16:21:49.140Z,98715.91
2022-11-09T16:24:37.158Z,98703.34
2022-11-09T16:30:34.735Z,98713.97
2022-11-09T16:33:23.715Z,98714.78
2022-11-09T16:36:20.754Z,98709.44
2022-11-09T16:39:19.797Z,98711.84
2022-11-09T16:42:13.670Z,98707.22
2022-11-09T16:45:11.796Z,98717.38
2022-11-09T16:47:59.888Z,98712.31
2022-11-09T16:50:49.033Z,98711.47
2022-11-09T16:54:06.341Z,98717.78
2022-11-09T16:56:55.035Z,98723.38
2022-11-09T16:59:42.421Z,98719.75
2022-11-09T17:02:38.184Z,98726.13
2022-11-09T17:05:25.570Z,98726.72
2022-11-09T17:08:17.143Z,98735.06
2022-11-09T17:11:10.219Z,98738.00
2022-11-09T17:13:58.527Z,98739.59
2022-11-09T17:16:47.499Z,98744.50
2022-11-09T17:19:37.059Z,98734.16
2022-11-09T17:22:29.288Z,98734.75
2022-11-09T17:25:23.527Z,98737.66
2022-11-09T17:29:27.628Z,98748.47
2022-11-09T17:32:22.969Z,98751.63
2022-11-09T17:35:14.132Z,98746.75
2022-11-09T17:38:06.036Z,98748.47
2022-11-09T17:41:02.392Z,98754.03
2022-11-09T17:43:49.804Z,98761.16
2022-11-09T17:46:45.332Z,98765.72
2022-11-09T17:49:35.204Z,98759.06
2022-11-09T17:52:29.092Z,98758.56
2022-11-09T17:55:17.534Z,98758.00
2022-11-09T17:58:06.877Z,98767.09
2022-11-09T18:01:07.654Z,98773.53
2022-11-09T18:03:55.736Z,98773.53
2022-11-09T18:06:44.085Z,98776.41
2022-11-09T18:09:47.007Z,98780.50
2022-11-09T18:12:37.230Z,98787.78
2022-11-09T18:16:16.171Z,98784.81
2022-11-09T18:19:07.059Z,98783.06
2022-11-09T18:21:55.037Z,98778.88
2022-11-09T18:24:43.668Z,98779.69
2022-11-09T18:27:31.220Z,98775.94
2022-11-09T18:30:20.218Z,98777.81
2022-11-09T18:33:12.792Z,98781.06
2022-11-09T18:36:09.380Z,98786.31
2022-11-09T18:38:57.670Z,98781.56
2022-11-09T18:41:45.607Z,98786.41
2022-11-09T18:44:32.889Z,98782.38
2022-11-09T18:47:20.651Z,98788.75
2022-11-09T18:50:11.370Z,98782.59
2022-11-09T18:53:00.629Z,98782.38
2022-11-09T18:55:48.518Z,98786.97
2022-11-09T18:58:41.265Z,98783.03
2022-11-09T19:01:48.630Z,98787.94
2022-11-09T19:04:37.022Z,98786.41
2022-11-09T19:07:25.909Z,98797.69
2022-11-09T19:14:57.522Z,98799.56
2022-11-09T19:17:56.281Z,98796.06
2022-11-09T19:20:44.203Z,98805.16
2022-11-09T19:23:34.874Z,98809.00
2022-11-09T19:27:17.361Z,98810.88
2022-11-09T19:30:09.327Z,98807.94
2022-11-09T19:33:28.400Z,98812.00
2022-11-09T19:36:34.606Z,98819.72
2022-11-09T19:39:28.325Z,98818.16
2022-11-09T19:42:27.133Z,98818.66
2022-11-09T19:45:15.744Z,98824.81
2022-11-09T19:48:05.689Z,98823.53
2022-11-09T19:50:54.822Z,98819.81
2022-11-09T19:53:44.399Z,98819.31
2022-11-09T19:56:37.075Z,98824.94
2022-11-09T19:59:24.915Z,98830.19
2022-11-09T20:02:12.980Z,98826.19
2022-11-09T20:05:09.993Z,98828.88
2022-11-09T20:07:57.487Z,98837.25
2022-11-09T20:10:45.038Z,98835.97
2022-11-09T20:13:34.268Z,98836.56
2022-11-09T20:16:22.833Z,98833.28
2022-11-09T20:19:14.411Z,98838.63
2022-11-09T20:22:03.505Z,98843.78
2022-11-09T20:24:51.308Z,98842.47
2022-11-09T20:27:39.216Z,98837.13
2022-11-09T20:30:28.818Z,98841.09
2022-11-09T20:33:17.366Z,98845.31
2022-11-09T20:36:06.090Z,98849.84
2022-11-09T20:46:40.005Z,98858.94
2022-11-09T20:49:27.153Z,98862.69
2022-11-09T20:52:14.238Z,98861.38
2022-11-09T20:55:04.396Z,98857.53
2022-11-09T20:57:51.604Z,98867.53
2022-11-09T21:00:40.625Z,98871.28
2022-11-09T21:03:29.140Z,98859.25
2022-11-09T21:06:17.765Z,98870.72
2022-11-09T21:09:05.849Z,98871.28
2022-11-09T21:12:10.529Z,98878.00
2022-11-09T21:14:57.836Z,98884.69
2022-11-09T21:17:45.225Z,98882.00
2022-11-09T21:20:36.167Z,98892.72
2022-11-09T21:23:41.353Z,98891.41
2022-11-09T21:26:47.274Z,98888.38
2022-11-09T21:29:53.380Z,98887.06
2022-11-09T21:32:41.190Z,98890.31
2022-11-09T21:35:28.648Z,98890.31
2022-11-09T21:38:17.151Z,98888.69
2022-11-09T21:41:21.824Z,98891.38
2022-11-09T21:44:11.547Z,98898.94
2022-11-09T21:47:00.040Z,98900.56
2022-11-09T21:49:47.130Z,98903.81
2022-11-09T21:52:34.078Z,98914.34
2022-11-09T21:55:23.940Z,98920.28
2022-11-09T21:58:11.077Z,98919.22
2022-11-09T22:01:02.569Z,98922.00
2022-11-09T22:03:51.250Z,98931.66
2022-11-09T22:06:41.578Z,98935.88
2022-11-09T22:09:35.705Z,98941.00
2022-11-09T22:12:51.260Z,98943.44
2022-11-09T22:15:55.578Z,98930.84
2022-11-09T22:19:00.411Z,98940.19
2022-11-09T22:21:47.470Z,98946.13
2022-11-09T22:24:34.527Z,98933.78
2022-11-09T22:27:22.573Z,98927.38
2022-11-09T22:30:12.575Z,98906.88
2022-11-09T22:33:00.413Z,98905.81
2022-11-09T22:35:55.889Z,98925.75
2022-11-09T22:38:46.140Z,98923.63
2022-11-09T22:41:33.767Z,98932.03
2022-11-09T22:44:21.475Z,98929.00
2022-11-09T22:47:10.055Z,98933.88
2022-11-09T22:49:57.466Z,98930.16
2022-11-09T22:52:44.610Z,98926.41
2022-11-09T22:55:32.391Z,98934.09
2022-11-09T22:58:19.465Z,98925.59
2022-11-09T23:01:11.766Z,98940.28
2022-11-09T23:04:00.651Z,98940.06
2022-11-09T23:06:48.990Z,98948.56
2022-11-09T23:09:36.336Z,98955.31
2022-11-09T23:12:23.658Z,98959.03
2022-11-09T23:15:13.399Z,98952.88
2022-11-09T23:18:18.639Z,98957.41
2022-11-09T23:21:08.015Z,98971.88
2022-11-09T23:23:57.978Z,98973.16
2022-11-09T23:26:45.483Z,98979.34
2022-11-09T23:29:32.781Z,98978.19
2022-11-09T23:32:19.978Z,98983.88
2022-11-09T23:35:09.335Z,98979.34
2022-11-09T23:38:03.255Z,98984.69
2022-11-09T23:40:51.241Z,98984.59
2022-11-09T23:43:39.232Z,98983.78
2022-11-09T23:46:26.497Z,98986.22
2022-11-09T23:49:13.977Z,98982.38
2022-11-09T23:52:01.597Z,98996.25
2022-11-09T23:54:50.419Z,98994.38
2022-11-09T23:57:37.635Z,99002.66
